Flight Track Log - Related Links

Times and Time Zones

All times are in EST time to prevent confusion due to time zone crossing. See the EJA929 flight status page for this flight to view local times or setup timezone preferences in your user account.

Time Position Orientation Groundspeed Altitude Reporting Facility
EST Latitude Longitude Course Direction KTS MPH feet Rate Location/Type
Tue 03:43:51 PM 33.8994 -118.5481 246° West 268 308 6,500  Level Los Angeles Center
Tue 03:44:53 PM 33.8367 -118.5281 165° South 276 318 10,100 2,976 Climbing Los Angeles Center
Tue 03:45:56 PM 33.8778 -118.4436 60° Northeast 316 364 12,700 2,448 Climbing Los Angeles Center
Tue 03:46:58 PM 33.9600 -118.3867 30° Northeast 353 406 15,200 2,419 Climbing Los Angeles Center
Tue 03:48:00 PM 34.2578 -117.8300 51° Northeast  Level FlightAware Approximate
Tue 03:48:00 PM 34.0178 -118.2831 56° Northeast 367 422 17,700  Level Los Angeles Center
Tue 03:49:02 PM 34.0803 -118.1733 55° Northeast 390 449 20,200 2,468 Climbing Los Angeles Center
Tue 03:50:04 PM 34.1431 -118.0614 56° Northeast 401 461 22,800 2,323 Climbing Los Angeles Center
Tue 03:51:06 PM 34.2092 -117.9442 56° Northeast 415 478 25,000 1,742 Climbing Los Angeles Center
Tue 03:52:08 PM 34.2803 -117.8175 56° Northeast 448 516 26,400 960 Climbing Los Angeles Center
Tue 03:53:11 PM 34.3733 -117.6511 56° Northeast 492 566 27,000 288 Climbing Los Angeles Center
Tue 03:54:13 PM 34.4422 -117.5264 56° Northeast 514 592 27,000  Level Los Angeles Center
Tue 03:55:15 PM 34.5361 -117.3569 56° Northeast 510 587 27,000  Level Los Angeles Center
Tue 03:56:17 PM 34.6119 -117.2197 56° Northeast 498 573 27,000  Level Los Angeles Center
Tue 03:57:19 PM 34.6858 -117.0842 56° Northeast 489 563 27,000  Level Los Angeles Center
Tue 03:58:21 PM 34.7608 -116.9461 56° Northeast 492 566 27,000  Level Los Angeles Center
Tue 03:59:23 PM 34.8561 -116.7703 57° Northeast 519 597 27,000 -720 Level Los Angeles Center
Tue 04:00:26 PM 34.9361 -116.6242 56° Northeast 522 601 25,500 -1,440 Descending Los Angeles Center
Tue 04:01:28 PM 35.0292 -116.4933 49° Northeast 512 589 24,000 -774 Descending Los Angeles Center
Tue 04:02:30 PM 35.1225 -116.3744 46° Northeast 492 566 23,900 -1,210 Descending Los Angeles Center
Tue 04:03:32 PM 35.2169 -116.2578 45° Northeast 487 560 21,500 -2,419 Descending Los Angeles Center
Tue 04:04:34 PM 35.3208 -116.1253 46° Northeast 460 529 18,900 -2,226 Descending Los Angeles Center
Tue 04:05:36 PM 35.4086 -116.0139 46° Northeast 455 524 16,900 -1,983 Descending Los Angeles Center
Tue 04:06:29 PM 35.4881 -115.9169 45° Northeast 428 493 15,100 -1,905 Descending Los Angeles Center
Tue 04:06:39 PM 35.4953 -115.9083 44° Northeast 450 518 14,900 -1,500 Descending Los Angeles Center
Tue 04:07:37 PM 35.5744 -115.8053 47° Northeast 422 486 13,400 -1,452 Descending Los Angeles Center
Tue 04:07:41 PM 35.5750 -115.8028 75° East 435 501 13,400 -400 Level Los Angeles Center
Tue 04:08:37 PM 35.6431 -115.7225 44° Northeast 341 392 13,000 -387 Descending Los Angeles Center
Tue 04:08:43 PM 35.6414 -115.7208 141° Southeast 376 433 13,000  Level Los Angeles Center
Tue 04:09:33 PM 35.6964 -115.6497 46° Northeast 313 360 13,000  Level Los Angeles Center
Tue 04:09:45 PM 35.7019 -115.6442 39° Northeast 337 388 13,000  Level Los Angeles Center
Tue 04:10:27 PM 35.7536 -115.5839 43° Northeast 305 351 13,000  Level Los Angeles Center
Tue 04:10:47 PM 35.7792 -115.5739 18° North 300 345 13,000  Level Los Angeles Center
Tue 04:11:40 PM 35.8500 -115.5711 North 280 322 13,000  Level Los Angeles Center
Tue 04:11:49 PM 35.8633 -115.5689 North 282 325 13,000  Level Los Angeles Center
Tue 04:12:29 PM 35.9097 -115.5678 North 277 319 13,000  Level Los Angeles Center
Tue 04:12:51 PM 35.9408 -115.5636 North 279 321 13,000 -885 Level Los Angeles Center
Tue 04:13:30 PM 35.9822 -115.5231 38° Northeast 286 329 12,100 -1,333 Descending Los Angeles Center
Tue 04:13:54 PM 35.9956 -115.4883 65° Northeast 283 326 11,600 -984 Descending Los Angeles Center
Tue 04:14:31 PM 36.0106 -115.4342 71° East 278 320 11,100 -581 Descending Los Angeles Center
Tue 04:14:56 PM 36.0228 -115.3994 66° East 277 319 11,000 -727 Descending Los Angeles Center
Tue 04:15:37 PM 36.0256 -115.3336 87° East 284 327 10,300 -1,258 Descending Los Angeles Center
Tue 04:15:58 PM 36.0247 -115.2953 92° East 287 330 9,700 -1,279 Descending Los Angeles Center
Tue 04:16:38 PM 36.0208 -115.2317 94° East 278 320 9,000 -677 Descending Los Angeles Center
Tue 04:17:00 PM 36.0192 -115.2008 94° East 279 321 9,000 -545 Level Los Angeles Center
Tue 04:17:33 PM 36.0131 -115.1464 98° East 273 314 8,500 -968 Descending Los Angeles Center
Tue 04:18:02 PM 36.0128 -115.1044 90° East 266 306 8,000 -492 Descending Los Angeles Center
Tue 04:18:34 PM 36.0097 -115.0625 95° East 232 267 8,000 -290 Level Los Angeles Center
Tue 04:19:04 PM 36.0231 -115.0322 61° Northeast 209 241 7,700 -984 Descending Los Angeles Center
Tue 04:19:35 PM 36.0478 -115.0181 25° Northeast 209 241 7,000 -1,258 Descending Los Angeles Center
Tue 04:20:06 PM 36.0761 -115.0189 359° North 198 228 6,400 -1,404 Descending Los Angeles Center
Tue 04:21:09 PM 36.1158 -115.0628 318° Northwest 181 208 4,800 -1,533 Descending Los Angeles Center
Tue 04:21:36 PM 36.1267 -115.0822 305° West 160 184 4,100 -1,548 Descending Los Angeles Center
Tue 04:22:11 PM 36.1369 -115.1078 296° West 154 177 3,200 -1,309 Descending Los Angeles Center
Tue 04:22:31 PM 36.1364 -115.1269 268° West 151 174 2,900 -677 Descending Los Angeles Center
Tue 04:23:13 PM 36.1153 -115.1472 218° Southwest 143 165 2,500 -590 Descending Los Angeles Center
Tue 04:23:32 PM 36.1053 -115.1533 206° Southwest 141 162 2,300 -632 Descending Los Angeles Center
Tue 04:25:00 PM 36.0801 -115.1523 97° East  Level Estimated

Login

Don't have an account? Register now (free) for customized features, flight alerts, and more!